WXM80 ListenWXM80 Stop

You find our weather info also at:

UK Metoffice

WeatherCloud

Weather Underground

Northeastern Weather Network

AWEKAS

Citizen Weather Observer Program (CWOP)

HAMweather, WeatherForYou, PWS Weather


Weather Underground History page Text

Daily Summary for July 11, 2017 Units:  English    Metric   Both
« Previous Day
Next Day »
Daily Weekly Monthly Yearly Custom
  High: Low: Average:
Temperature: 89.4 °F 73.7 °F 79.7 °F
Dew Point: 75.0 °F 70.8 °F 72.7 °F
Humidity: 94 % 57 % 80 %
Wind Speed: 11.4 mph 0.0 mph 1.5 mph
Wind Gust: 23.0 mph - -
Wind:- - WSW
Pressure: 29.93 in 29.86 in -
Precipitation: 0.37 in    
Historical Graphs
 
 
Tabular Data for July 11, 2017
Time Temperature Dew Point Pressure Wind Wind Speed Wind Gust Humidity Rainfall Rate (Hourly)
00:04 75.6 °F 71.5 °F 29.93 in South 1.7 mph 3.5 mph 87 % 0.00 in
00:09 75.6 °F 71.5 °F 29.93 in SSW 0.8 mph 3.5 mph 87 % 0.00 in
00:14 75.6 °F 71.5 °F 29.93 in South 0.6 mph 2.3 mph 87 % 0.00 in
00:19 75.6 °F 71.5 °F 29.93 in SSE 2.3 mph 3.5 mph 87 % 0.00 in
00:24 75.6 °F 71.5 °F 29.93 in SSW 1.9 mph 4.0 mph 87 % 0.00 in
00:29 75.6 °F 71.5 °F 29.93 in SSW 0.3 mph 3.5 mph 87 % 0.00 in
00:34 75.6 °F 71.5 °F 29.92 in South 0.3 mph 1.2 mph 87 % 0.00 in
00:39 75.6 °F 71.5 °F 29.93 in South 0.7 mph 3.5 mph 87 % 0.00 in
00:44 75.6 °F 71.5 °F 29.93 in SSE 1.3 mph 3.5 mph 87 % 0.00 in
00:49 75.6 °F 71.8 °F 29.92 in South 2.0 mph 3.5 mph 88 % 0.00 in
00:54 75.5 °F 71.7 °F 29.92 in SSW 0.7 mph 4.6 mph 88 % 0.00 in
00:59 75.5 °F 71.7 °F 29.92 in SSE 2.0 mph 4.0 mph 88 % 0.00 in
01:04 75.5 °F 71.7 °F 29.92 in SSW 0.2 mph 3.5 mph 88 % 0.00 in
01:09 75.5 °F 71.7 °F 29.92 in SSW 1.0 mph 3.5 mph 88 % 0.00 in
01:14 75.5 °F 71.7 °F 29.92 in South 1.8 mph 3.5 mph 88 % 0.00 in
01:19 75.4 °F 71.6 °F 29.92 in SSW 2.0 mph 3.5 mph 88 % 0.00 in
01:24 75.4 °F 71.6 °F 29.91 in Calm   2.3 mph 88 % 0.00 in
01:30 75.3 °F 71.5 °F 29.91 in SSW 0.6 mph 3.5 mph 88 % 0.00 in
01:33 75.3 °F 71.5 °F 29.91 in SE 0.7 mph 1.2 mph 88 % 0.00 in
01:38 75.3 °F 71.5 °F 29.91 in SSE 1.0 mph 3.5 mph 88 % 0.00 in
01:43 75.3 °F 71.5 °F 29.91 in SSE 2.5 mph 4.0 mph 88 % 0.00 in
01:48 75.2 °F 71.4 °F 29.91 in South 1.2 mph 3.5 mph 88 % 0.00 in
01:53 75.2 °F 71.4 °F 29.91 in South 1.1 mph 3.0 mph 88 % 0.00 in
01:58 75.2 °F 71.4 °F 29.91 in SSW 0.9 mph 3.5 mph 88 % 0.00 in
02:04 75.2 °F 71.7 °F 29.91 in SSW 2.1 mph 3.5 mph 89 % 0.00 in
02:09 75.2 °F 71.7 °F 29.91 in SW 0.7 mph 2.0 mph 89 % 0.00 in
02:14 75.2 °F 71.7 °F 29.90 in SE 2.4 mph 5.8 mph 89 % 0.00 in
02:19 75.2 °F 71.7 °F 29.90 in WSW 1.0 mph 3.5 mph 89 % 0.00 in
02:24 75.2 °F 71.7 °F 29.90 in SSW 0.4 mph 3.5 mph 89 % 0.00 in
02:29 75.2 °F 71.7 °F 29.90 in WSW 2.0 mph 5.0 mph 89 % 0.00 in
02:34 75.2 °F 71.7 °F 29.90 in South 0.8 mph 4.0 mph 89 % 0.00 in
02:39 75.2 °F 71.7 °F 29.90 in South 1.6 mph 4.6 mph 89 % 0.00 in
02:44 75.2 °F 71.7 °F 29.90 in South 0.3 mph 2.3 mph 89 % 0.00 in
02:49 75.1 °F 71.6 °F 29.90 in SW 1.8 mph 3.5 mph 89 % 0.00 in
02:54 75.1 °F 71.6 °F 29.89 in SSE 1.3 mph 5.8 mph 89 % 0.00 in
02:59 75.1 °F 71.6 °F 29.89 in SSE 0.3 mph 1.2 mph 89 % 0.00 in
03:04 75.1 °F 71.6 °F 29.89 in SE 2.8 mph 6.9 mph 89 % 0.00 in
03:09 75.1 °F 71.6 °F 29.89 in SSE 1.5 mph 3.5 mph 89 % 0.00 in
03:14 75.0 °F 71.2 °F 29.89 in SSW 0.9 mph 2.3 mph 88 % 0.00 in
03:19 74.9 °F 71.1 °F 29.89 in SE 1.0 mph 6.0 mph 88 % 0.00 in
03:24 74.9 °F 71.1 °F 29.88 in SSW 0.7 mph 1.2 mph 88 % 0.00 in
03:29 74.9 °F 71.1 °F 29.88 in SSW 1.5 mph 2.3 mph 88 % 0.00 in
03:34 74.9 °F 71.1 °F 29.88 in SSE 2.0 mph 3.5 mph 88 % 0.00 in
03:40 74.9 °F 71.1 °F 29.88 in SSW 2.6 mph 3.5 mph 88 % 0.00 in
03:45 74.9 °F 71.4 °F 29.88 in SSW 1.2 mph 3.5 mph 89 % 0.00 in
03:50 74.9 °F 71.4 °F 29.88 in SSE 0.8 mph 3.5 mph 89 % 0.00 in
03:55 74.9 °F 71.4 °F 29.88 in SSW 1.5 mph 3.5 mph 89 % 0.00 in
04:00 74.9 °F 71.4 °F 29.88 in South 0.6 mph 3.5 mph 89 % 0.00 in
04:05 74.9 °F 71.8 °F 29.88 in SE 0.5 mph 2.0 mph 90 % 0.00 in
04:06 74.9 °F 71.8 °F 29.88 in SSE 0.6 mph 2.3 mph 90 % 0.00 in
04:11 74.9 °F 71.8 °F 29.88 in South 1.2 mph 3.5 mph 90 % 0.00 in
04:16 74.9 °F 71.8 °F 29.88 in WSW 0.8 mph 3.5 mph 90 % 0.00 in
04:21 74.9 °F 71.8 °F 29.87 in West 0.3 mph 1.2 mph 90 % 0.00 in
04:26 75.0 °F 71.9 °F 29.87 in SSW 0.9 mph 5.8 mph 90 % 0.00 in
04:32 75.0 °F 71.9 °F 29.87 in SSE 2.2 mph 4.6 mph 90 % 0.00 in
04:37 75.1 °F 72.0 °F 29.87 in SE 1.9 mph 4.6 mph 90 % 0.00 in
04:42 75.1 °F 72.0 °F 29.87 in SE 1.8 mph 3.5 mph 90 % 0.00 in
04:47 75.1 °F 72.0 °F 29.86 in SSW 1.1 mph 3.5 mph 90 % 0.00 in
04:52 75.2 °F 72.1 °F 29.86 in West 2.0 mph 5.8 mph 90 % 0.00 in
04:57 75.2 °F 72.1 °F 29.87 in SSW 0.8 mph 3.5 mph 90 % 0.00 in
05:02 75.2 °F 72.1 °F 29.87 in WSW 1.6 mph 2.3 mph 90 % 0.00 in
05:07 75.1 °F 72.0 °F 29.88 in WSW 0.6 mph 3.5 mph 90 % 0.00 in
05:12 75.1 °F 72.0 °F 29.88 in SW 0.6 mph 2.3 mph 90 % 0.00 in
05:17 75.1 °F 72.0 °F 29.88 in SW 2.9 mph 5.8 mph 90 % 0.00 in
05:22 75.1 °F 72.0 °F 29.88 in WSW 0.4 mph 2.0 mph 90 % 0.00 in
05:27 75.0 °F 71.9 °F 29.88 in WNW 1.1 mph 3.5 mph 90 % 0.00 in
05:32 75.0 °F 71.9 °F 29.88 in WSW 1.0 mph 3.5 mph 90 % 0.00 in
05:37 75.0 °F 71.9 °F 29.88 in WSW 0.4 mph 3.5 mph 90 % 0.00 in
05:42 74.9 °F 71.8 °F 29.88 in Calm     90 % 0.00 in
05:47 74.9 °F 71.8 °F 29.87 in Calm     90 % 0.00 in
05:52 74.8 °F 71.7 °F 29.87 in Calm   1.2 mph 90 % 0.00 in
05:57 74.8 °F 71.7 °F 29.88 in Calm     90 % 0.00 in
06:02 74.8 °F 71.7 °F 29.88 in Calm     90 % 0.00 in
06:07 74.7 °F 71.6 °F 29.87 in Calm     90 % 0.00 in
06:12 74.7 °F 71.6 °F 29.88 in Calm   1.2 mph 90 % 0.00 in
06:18 74.6 °F 71.5 °F 29.87 in SW 0.1 mph 4.6 mph 90 % 0.00 in
06:23 74.6 °F 71.5 °F 29.87 in SW 0.2 mph 2.3 mph 90 % 0.00 in
06:28 74.6 °F 71.5 °F 29.87 in SW 0.7 mph 1.0 mph 90 % 0.00 in
06:33 74.7 °F 71.6 °F 29.87 in South 1.5 mph 3.5 mph 90 % 0.00 in
06:38 74.7 °F 71.6 °F 29.87 in WSW 0.8 mph 3.0 mph 90 % 0.00 in
06:43 74.8 °F 71.7 °F 29.87 in Calm   1.0 mph 90 % 0.00 in
06:48 74.9 °F 71.4 °F 29.87 in WSW 2.0 mph 3.5 mph 89 % 0.00 in
06:53 74.9 °F 71.4 °F 29.87 in West 1.8 mph 6.0 mph 89 % 0.00 in
06:58 75.0 °F 71.5 °F 29.87 in WSW 0.4 mph 4.0 mph 89 % 0.00 in
07:03 75.1 °F 71.6 °F 29.87 in SSE 1.5 mph 3.5 mph 89 % 0.00 in
07:08 75.2 °F 71.7 °F 29.88 in WSW 2.2 mph 5.8 mph 89 % 0.00 in
07:13 75.3 °F 71.8 °F 29.88 in SW 3.1 mph 7.0 mph 89 % 0.00 in
07:18 75.5 °F 72.0 °F 29.88 in SW 4.3 mph 4.6 mph 89 % 0.00 in
07:23 75.8 °F 72.3 °F 29.88 in SSW 1.0 mph 6.0 mph 89 % 0.00 in
07:28 76.0 °F 72.2 °F 29.89 in SSW 1.0 mph 5.0 mph 88 % 0.00 in
07:33 76.3 °F 72.5 °F 29.88 in SW 2.4 mph 7.0 mph 88 % 0.00 in
07:38 76.6 °F 72.8 °F 29.89 in West 2.0 mph 4.6 mph 88 % 0.00 in
07:43 76.8 °F 72.6 °F 29.89 in West 1.8 mph 3.5 mph 87 % 0.00 in
07:48 77.0 °F 72.5 °F 29.89 in WSW 3.0 mph 4.6 mph 86 % 0.00 in
07:53 77.1 °F 72.6 °F 29.89 in WSW 4.7 mph 8.0 mph 86 % 0.00 in
07:58 77.2 °F 72.3 °F 29.89 in SW 4.4 mph 5.8 mph 85 % 0.00 in
08:03 77.3 °F 72.4 °F 29.89 in WSW 2.3 mph 4.0 mph 85 % 0.00 in
08:08 77.4 °F 72.5 °F 29.89 in SW 3.2 mph 4.6 mph 85 % 0.00 in
08:13 77.5 °F 73.0 °F 29.89 in WNW 1.6 mph 5.8 mph 86 % 0.00 in
08:18 77.7 °F 72.8 °F 29.90 in West 2.1 mph 8.1 mph 85 % 0.00 in
08:23 77.8 °F 72.9 °F 29.89 in WNW 3.3 mph 6.9 mph 85 % 0.00 in
08:28 77.9 °F 73.0 °F 29.89 in North 0.2 mph 1.2 mph 85 % 0.00 in
08:33 77.9 °F 73.0 °F 29.89 in North 0.6 mph 1.2 mph 85 % 0.00 in
08:38 78.0 °F 73.1 °F 29.89 in WNW 2.8 mph 3.5 mph 85 % 0.00 in
08:44 78.0 °F 73.1 °F 29.89 in WNW 0.9 mph 1.2 mph 85 % 0.00 in
08:49 78.1 °F 73.2 °F 29.89 in West 2.2 mph 3.5 mph 85 % 0.00 in
08:54 78.1 °F 73.2 °F 29.89 in West 0.8 mph 3.5 mph 85 % 0.00 in
08:59 78.2 °F 73.0 °F 29.89 in WNW 1.4 mph 4.0 mph 84 % 0.00 in
09:04 78.3 °F 73.4 °F 29.89 in WNW 0.7 mph 4.6 mph 85 % 0.00 in
09:09 78.3 °F 73.4 °F 29.89 in WNW 2.4 mph 6.9 mph 85 % 0.00 in
09:14 78.4 °F 72.8 °F 29.89 in West 3.9 mph 8.1 mph 83 % 0.00 in
09:19 78.6 °F 73.0 °F 29.89 in WSW 2.2 mph 4.0 mph 83 % 0.00 in
09:24 78.7 °F 72.7 °F 29.89 in WSW 2.3 mph 6.9 mph 82 % 0.00 in
09:29 78.9 °F 72.6 °F 29.89 in NW 4.1 mph 8.0 mph 81 % 0.00 in
09:34 79.1 °F 72.8 °F 29.89 in SSW 5.0 mph 8.0 mph 81 % 0.00 in
09:39 79.5 °F 73.2 °F 29.89 in WSW 4.2 mph 4.6 mph 81 % 0.00 in
09:44 79.8 °F 73.1 °F 29.89 in WSW 5.3 mph 8.1 mph 80 % 0.00 in
09:49 80.2 °F 72.7 °F 29.90 in WSW 2.1 mph 8.1 mph 78 % 0.00 in
09:54 80.8 °F 73.3 °F 29.89 in SW 3.7 mph 6.9 mph 78 % 0.00 in
10:00 81.4 °F 73.5 °F 29.90 in WSW 2.1 mph 9.2 mph 77 % 0.00 in
10:05 81.8 °F 73.1 °F 29.90 in West 1.5 mph 3.5 mph 75 % 0.00 in
10:10 82.2 °F 73.1 °F 29.90 in SW 3.5 mph 6.0 mph 74 % 0.00 in
10:15 82.6 °F 72.7 °F 29.90 in West 3.2 mph 8.1 mph 72 % 0.00 in
10:20 82.9 °F 72.5 °F 29.89 in SW 1.1 mph 6.9 mph 71 % 0.00 in
10:25 82.9 °F 71.7 °F 29.89 in WNW 3.1 mph 6.9 mph 69 % 0.00 in
10:30 82.8 °F 72.0 °F 29.89 in SW 0.8 mph 3.5 mph 70 % 0.00 in
10:35 82.7 °F 72.3 °F 29.89 in WNW 1.7 mph 3.5 mph 71 % 0.00 in
10:40 82.6 °F 71.8 °F 29.89 in West 2.7 mph 6.9 mph 70 % 0.00 in
10:45 82.4 °F 71.6 °F 29.89 in WSW 3.7 mph 8.1 mph 70 % 0.00 in
10:50 82.6 °F 73.5 °F 29.89 in WNW 4.2 mph 6.9 mph 74 % 0.00 in
10:55 83.0 °F 73.4 °F 29.89 in NW 0.8 mph 3.5 mph 73 % 0.00 in
11:00 83.6 °F 72.8 °F 29.89 in WSW 3.1 mph 4.6 mph 70 % 0.00 in
11:05 84.2 °F 72.9 °F 29.89 in WSW 2.1 mph 4.6 mph 69 % 0.00 in
11:10 84.6 °F 72.0 °F 29.89 in WSW 3.6 mph 4.6 mph 66 % 0.00 in
11:15 85.0 °F 73.7 °F 29.89 in WSW 4.5 mph 6.9 mph 69 % 0.00 in
11:20 85.5 °F 74.2 °F 29.89 in WNW 2.8 mph 5.8 mph 69 % 0.00 in
11:25 85.8 °F 72.2 °F 29.89 in West 2.6 mph 4.6 mph 64 % 0.00 in
11:30 86.0 °F 72.4 °F 29.89 in NW 4.0 mph 6.9 mph 64 % 0.00 in
11:35 86.3 °F 72.7 °F 29.89 in SW 3.1 mph 5.8 mph 64 % 0.00 in
11:40 86.5 °F 72.4 °F 29.89 in SW 4.7 mph 8.1 mph 63 % 0.00 in
11:45 86.5 °F 71.5 °F 29.89 in WSW 8.4 mph 11.5 mph 61 % 0.00 in
11:50 86.3 °F 70.8 °F 29.89 in West 3.4 mph 8.1 mph 60 % 0.00 in
11:55 86.4 °F 71.8 °F 29.89 in West 2.3 mph 4.6 mph 62 % 0.00 in
12:00 86.5 °F 71.9 °F 29.89 in WSW 4.5 mph 7.0 mph 62 % 0.00 in
12:05 86.7 °F 72.6 °F 29.89 in West 5.2 mph 9.2 mph 63 % 0.00 in
12:10 87.1 °F 72.5 °F 29.89 in West 3.1 mph 10.4 mph 62 % 0.00 in
12:15 87.5 °F 73.3 °F 29.88 in NNW 4.9 mph 11.5 mph 63 % 0.00 in
12:20 87.9 °F 73.3 °F 29.88 in SSW 3.2 mph 6.0 mph 62 % 0.00 in
12:25 88.4 °F 73.2 °F 29.88 in West 3.8 mph 5.8 mph 61 % 0.00 in
12:31 88.7 °F 73.5 °F 29.88 in WSW 5.0 mph 10.0 mph 61 % 0.00 in
12:36 88.9 °F 72.7 °F 29.89 in West 3.1 mph 5.8 mph 59 % 0.00 in
12:41 89.0 °F 72.8 °F 29.88 in SW 3.2 mph 9.0 mph 59 % 0.00 in
12:46 89.1 °F 72.4 °F 29.88 in SW 3.6 mph 9.0 mph 58 % 0.00 in
12:52 89.2 °F 72.5 °F 29.88 in West 3.1 mph 9.2 mph 58 % 0.00 in
12:57 89.3 °F 73.1 °F 29.89 in NW 4.1 mph 8.1 mph 59 % 0.00 in
13:02 89.4 °F 73.2 °F 29.88 in NW 2.7 mph 9.2 mph 59 % 0.00 in
13:07 89.1 °F 71.9 °F 29.88 in WSW 4.4 mph 9.2 mph 57 % 0.00 in
13:12 88.8 °F 72.6 °F 29.88 in West 4.0 mph 5.8 mph 59 % 0.00 in
13:17 88.5 °F 73.3 °F 29.88 in NW 2.1 mph 6.0 mph 61 % 0.00 in
13:22 88.5 °F 73.3 °F 29.88 in NW 3.2 mph 8.1 mph 61 % 0.00 in
13:27 88.5 °F 73.3 °F 29.88 in WNW 3.9 mph 5.8 mph 61 % 0.00 in
13:32 88.5 °F 73.3 °F 29.89 in SW 2.5 mph 8.1 mph 61 % 0.00 in
13:37 88.3 °F 73.1 °F 29.88 in WSW 2.2 mph 5.8 mph 61 % 0.00 in
13:42 88.1 °F 72.5 °F 29.88 in WNW 4.2 mph 10.4 mph 60 % 0.00 in
13:47 88.0 °F 73.3 °F 29.88 in WSW 2.8 mph 5.8 mph 62 % 0.00 in
13:52 87.8 °F 73.2 °F 29.88 in NNW 6.3 mph 6.3 mph 62 % 0.00 in
13:57 87.6 °F 73.0 °F 29.88 in SW 0.9 mph 3.5 mph 62 % 0.00 in
14:02 87.7 °F 74.0 °F 29.88 in West 0.4 mph 2.3 mph 64 % 0.00 in
14:07 87.7 °F 73.1 °F 29.88 in WSW 2.4 mph 4.0 mph 62 % 0.00 in
14:12 87.8 °F 73.2 °F 29.88 in West 0.3 mph 3.5 mph 62 % 0.00 in
14:17 87.8 °F 73.6 °F 29.88 in NW 2.9 mph 4.6 mph 63 % 0.00 in
14:22 87.9 °F 73.7 °F 29.89 in NW 3.9 mph 10.4 mph 63 % 0.00 in
14:27 87.9 °F 73.7 °F 29.88 in West 2.2 mph 4.6 mph 63 % 0.00 in
14:32 87.8 °F 73.6 °F 29.88 in WNW 2.0 mph 3.5 mph 63 % 0.00 in
14:37 87.8 °F 75.0 °F 29.88 in WNW 1.0 mph 3.5 mph 66 % 0.00 in
14:42 87.7 °F 73.5 °F 29.88 in NW 2.6 mph 5.0 mph 63 % 0.00 in
14:47 87.5 °F 73.8 °F 29.88 in West 2.3 mph 4.0 mph 64 % 0.00 in
14:53 87.3 °F 73.6 °F 29.89 in NW 2.1 mph 5.0 mph 64 % 0.00 in
14:58 87.1 °F 73.4 °F 29.88 in WNW 2.9 mph 4.6 mph 64 % 0.00 in
15:03 86.9 °F 72.8 °F 29.88 in NNE 2.8 mph 4.6 mph 63 % 0.00 in
15:08 86.7 °F 73.5 °F 29.89 in NW 3.2 mph 4.6 mph 65 % 0.00 in
15:13 86.6 °F 73.0 °F 29.89 in SW 1.0 mph 5.8 mph 64 % 0.00 in
15:18 86.5 °F 74.2 °F 29.88 in Calm   4.6 mph 67 % 0.00 in
15:23 86.4 °F 74.1 °F 29.89 in NW 1.5 mph 3.5 mph 67 % 0.00 in
15:28 86.3 °F 74.0 °F 29.89 in NW 0.5 mph 1.2 mph 67 % 0.00 in
15:33 86.2 °F 74.4 °F 29.89 in WNW 3.0 mph 6.9 mph 68 % 0.00 in
15:38 86.1 °F 73.0 °F 29.89 in West 3.3 mph 5.0 mph 65 % 0.00 in
15:43 86.0 °F 73.3 °F 29.88 in WNW 0.8 mph 3.5 mph 66 % 0.00 in
15:48 85.9 °F 74.1 °F 29.88 in WNW 0.9 mph 2.0 mph 68 % 0.00 in
15:53 85.9 °F 74.1 °F 29.88 in WNW 0.5 mph 2.0 mph 68 % 0.00 in
15:58 85.7 °F 74.4 °F 29.89 in WNW 2.3 mph 3.0 mph 69 % 0.00 in
16:03 85.5 °F 73.3 °F 29.88 in West 1.9 mph 3.5 mph 67 % 0.00 in
16:08 85.5 °F 73.7 °F 29.88 in NNE 0.7 mph 2.3 mph 68 % 0.00 in
16:13 85.6 °F 73.8 °F 29.88 in West 0.4 mph 6.9 mph 68 % 0.00 in
16:18 85.7 °F 73.0 °F 29.88 in WSW 2.8 mph 5.8 mph 66 % 0.00 in
16:23 85.7 °F 73.9 °F 29.88 in WNW 0.5 mph 3.5 mph 68 % 0.00 in
16:28 85.8 °F 74.0 °F 29.88 in WNW 0.8 mph 2.3 mph 68 % 0.00 in
16:33 85.8 °F 73.6 °F 29.88 in WSW 0.2 mph 1.0 mph 67 % 0.00 in
16:38 85.9 °F 73.2 °F 29.88 in WSW 2.3 mph 3.5 mph 66 % 0.00 in
16:43 86.3 °F 74.0 °F 29.88 in SW 2.4 mph 4.6 mph 67 % 0.00 in
16:48 86.5 °F 73.8 °F 29.88 in SW 1.7 mph 4.6 mph 66 % 0.00 in
16:54 86.8 °F 74.1 °F 29.88 in SW 2.9 mph 4.6 mph 66 % 0.00 in
16:59 87.0 °F 73.3 °F 29.88 in SW 3.4 mph 3.5 mph 64 % 0.00 in
17:04 87.0 °F 72.9 °F 29.88 in WSW 2.6 mph 6.9 mph 63 % 0.00 in
17:09 87.1 °F 73.4 °F 29.88 in West 1.9 mph 3.5 mph 64 % 0.00 in
17:14 87.3 °F 73.6 °F 29.88 in SW 0.8 mph 3.5 mph 64 % 0.00 in
17:19 87.4 °F 73.3 °F 29.88 in SW 2.2 mph 4.0 mph 63 % 0.00 in
17:24 87.3 °F 73.2 °F 29.88 in Calm   1.2 mph 63 % 0.00 in
17:29 87.3 °F 73.2 °F 29.87 in WSW 1.3 mph 3.5 mph 63 % 0.00 in
17:34 87.3 °F 73.2 °F 29.87 in WSW 0.3 mph 2.3 mph 63 % 0.00 in
17:39 87.0 °F 73.3 °F 29.87 in NW 0.8 mph 3.5 mph 64 % 0.00 in
17:44 87.0 °F 73.3 °F 29.88 in SW 1.5 mph 4.0 mph 64 % 0.00 in
17:49 86.9 °F 73.7 °F 29.87 in SW 0.8 mph 2.3 mph 65 % 0.00 in
17:54 86.9 °F 72.8 °F 29.87 in WNW 0.4 mph 1.2 mph 63 % 0.00 in
17:59 86.8 °F 72.7 °F 29.87 in WNW 1.9 mph 3.5 mph 63 % 0.00 in
18:04 86.8 °F 73.2 °F 29.87 in WNW 0.1 mph 2.3 mph 64 % 0.00 in
18:09 86.6 °F 72.5 °F 29.87 in WNW 1.2 mph 2.3 mph 63 % 0.00 in
18:14 86.5 °F 73.8 °F 29.87 in Calm   1.2 mph 66 % 0.00 in
18:19 86.2 °F 73.0 °F 29.88 in WNW 0.6 mph 2.3 mph 65 % 0.00 in
18:24 86.0 °F 74.6 °F 29.90 in SSW 11.4 mph 23.0 mph 69 % 0.02 in
18:26 85.4 °F 74.9 °F 29.91 in SW 6.4 mph 12.7 mph 71 % 0.06 in
18:31 83.6 °F 74.4 °F 29.89 in NW 1.4 mph 11.5 mph 74 % 0.22 in
18:34 82.9 °F 74.2 °F 29.89 in NW 0.6 mph 2.3 mph 75 % 0.32 in
18:39 82.0 °F 74.1 °F 29.88 in Calm     77 % 0.32 in
18:44 81.2 °F 74.1 °F 29.89 in North 0.2 mph 1.0 mph 79 % 0.32 in
18:49 80.5 °F 74.1 °F 29.89 in Calm     81 % 0.32 in
18:54 79.8 °F 73.8 °F 29.90 in WSW 0.7 mph 1.2 mph 82 % 0.32 in
18:55 79.7 °F 74.1 °F 29.89 in WSW 0.2 mph 2.3 mph 83 % 0.33 in
19:00 79.1 °F 73.8 °F 29.89 in Calm   1.2 mph 84 % 0.33 in
19:05 78.7 °F 73.8 °F 29.90 in Calm     85 % 0.33 in
19:10 78.4 °F 73.9 °F 29.89 in Calm     86 % 0.33 in
19:15 78.1 °F 73.9 °F 29.90 in Calm     87 % 0.33 in
19:20 77.8 °F 74.0 °F 29.89 in Calm     88 % 0.33 in
19:25 77.6 °F 73.8 °F 29.89 in Calm     88 % 0.29 in
19:30 77.4 °F 73.9 °F 29.89 in Calm   1.0 mph 89 % 0.15 in
19:35 77.3 °F 73.8 °F 29.89 in Calm     89 % 0.01 in
19:40 77.1 °F 73.6 °F 29.90 in Calm     89 % 0.01 in
19:45 77.1 °F 73.9 °F 29.90 in Calm     90 % 0.02 in
19:50 77.1 °F 74.3 °F 29.89 in SE 0.4 mph 2.3 mph 91 % 0.03 in
19:55 77.0 °F 74.2 °F 29.89 in SE 0.3 mph 1.2 mph 91 % 0.03 in
20:00 76.9 °F 74.1 °F 29.90 in SE 0.7 mph 1.2 mph 91 % 0.03 in
20:05 76.9 °F 74.1 °F 29.90 in Calm   1.2 mph 91 % 0.03 in
20:10 76.8 °F 74.0 °F 29.90 in SE 0.2 mph 1.2 mph 91 % 0.03 in
20:16 76.7 °F 74.2 °F 29.89 in SW 1.3 mph 3.0 mph 92 % 0.03 in
20:21 76.7 °F 74.2 °F 29.89 in Calm     92 % 0.04 in
20:26 76.6 °F 74.1 °F 29.89 in Calm   1.0 mph 92 % 0.04 in
20:31 76.5 °F 74.0 °F 29.89 in Calm     92 % 0.00 in
20:36 76.4 °F 73.9 °F 29.89 in Calm   1.0 mph 92 % 0.00 in
20:41 76.3 °F 73.8 °F 29.89 in Calm     92 % 0.00 in
20:46 76.2 °F 73.7 °F 29.89 in Calm     92 % 0.03 in
20:51 76.1 °F 73.6 °F 29.89 in Calm     92 % 0.00 in
20:56 76.0 °F 73.5 °F 29.89 in Calm   1.0 mph 92 % 0.00 in
21:01 75.9 °F 73.4 °F 29.89 in Calm     92 % 0.01 in
21:06 75.8 °F 73.3 °F 29.89 in Calm     92 % 0.01 in
21:11 75.7 °F 73.2 °F 29.89 in Calm     92 % 0.01 in
21:16 75.7 °F 73.2 °F 29.89 in Calm     92 % 0.01 in
21:21 75.6 °F 73.1 °F 29.89 in Calm     92 % 0.00 in
21:26 75.5 °F 73.0 °F 29.89 in Calm     92 % 0.00 in
21:31 75.5 °F 73.0 °F 29.89 in Calm     92 % 0.00 in
21:36 75.4 °F 72.9 °F 29.89 in Calm     92 % 0.00 in
21:41 75.3 °F 72.8 °F 29.90 in Calm     92 % 0.00 in
21:46 75.3 °F 72.8 °F 29.90 in Calm     92 % 0.00 in
21:51 75.2 °F 72.7 °F 29.90 in Calm     92 % 0.00 in
21:56 75.1 °F 72.6 °F 29.91 in Calm     92 % 0.00 in
22:01 75.0 °F 72.8 °F 29.90 in Calm     93 % 0.00 in
22:06 74.9 °F 72.7 °F 29.90 in Calm     93 % 0.00 in
22:11 74.9 °F 72.7 °F 29.91 in Calm     93 % 0.00 in
22:16 74.8 °F 72.6 °F 29.91 in Calm     93 % 0.00 in
22:22 74.7 °F 72.5 °F 29.90 in Calm     93 % 0.00 in
22:27 74.6 °F 72.4 °F 29.91 in Calm     93 % 0.00 in
22:32 74.6 °F 72.4 °F 29.91 in Calm     93 % 0.00 in
22:37 74.5 °F 72.3 °F 29.91 in Calm     93 % 0.00 in
22:42 74.4 °F 72.2 °F 29.90 in Calm     93 % 0.00 in
22:47 74.3 °F 72.1 °F 29.90 in Calm     93 % 0.00 in
22:52 74.3 °F 72.1 °F 29.90 in Calm     93 % 0.00 in
22:57 74.2 °F 72.0 °F 29.90 in Calm     93 % 0.00 in
23:02 74.1 °F 71.9 °F 29.90 in Calm     93 % 0.00 in
23:07 74.1 °F 71.9 °F 29.90 in Calm     93 % 0.00 in
23:12 74.0 °F 71.8 °F 29.90 in Calm     93 % 0.00 in
23:17 74.0 °F 71.8 °F 29.90 in Calm     93 % 0.00 in
23:22 73.9 °F 71.7 °F 29.90 in Calm     93 % 0.00 in
23:27 73.9 °F 71.7 °F 29.90 in Calm     93 % 0.00 in
23:32 73.8 °F 71.6 °F 29.90 in Calm     93 % 0.00 in
23:37 73.8 °F 72.0 °F 29.90 in Calm     94 % 0.00 in
23:42 73.8 °F 72.0 °F 29.90 in Calm     94 % 0.00 in
23:44 73.8 °F 72.0 °F 29.90 in Calm     94 % 0.00 in
23:49 73.8 °F 72.0 °F 29.90 in Calm     94 % 0.00 in
23:54 73.7 °F 71.9 °F 29.90 in Calm     94 % 0.00 in
23:59 73.7 °F 71.9 °F 29.91 in Calm     94 % 0.00 in
Crab Meadow Weather
Compliments of Weather Underground - 3 mb

Script developed by  Jim McMurry - jmcmurry@mwt.net Adapted for the template by  Wim van der Kuil - Leuven-Template.eu

Weather Terms: Funnel Cloud - A rotating column of air, extending from a towering cumulus or cumulonimbus cloud, that is not in contact with the ground.